sensor_id;sensor_type;location;lat;lon;timestamp;P1;durP1;ratioP1;P2;durP2;ratioP2
60582;SDS011;46415;47.536;19.066;2023-03-09T06:12:23;3.53;;;2.03;;
60582;SDS011;46415;47.536;19.066;2023-03-09T06:15:28;4.12;;;2.22;;
60582;SDS011;46415;47.536;19.066;2023-03-09T06:18:32;3.37;;;2.42;;
60582;SDS011;46415;47.536;19.066;2023-03-09T06:21:35;3.50;;;2.37;;
60582;SDS011;46415;47.536;19.066;2023-03-09T06:24:39;5.18;;;2.70;;
60582;SDS011;46415;47.536;19.066;2023-03-09T06:27:42;4.10;;;2.65;;
60582;SDS011;46415;47.536;19.066;2023-03-09T06:30:46;4.90;;;2.50;;
60582;SDS011;46415;47.536;19.066;2023-03-09T06:33:50;5.00;;;3.40;;
60582;SDS011;46415;47.536;19.066;2023-03-09T06:36:54;4.50;;;3.10;;
60582;SDS011;46415;47.536;19.066;2023-03-09T06:39:57;3.35;;;3.00;;
60582;SDS011;46415;47.536;19.066;2023-03-09T06:43:00;4.57;;;2.70;;
60582;SDS011;46415;47.536;19.066;2023-03-09T06:46:03;4.78;;;3.08;;
60582;SDS011;46415;47.536;19.066;2023-03-09T06:49:07;5.47;;;2.62;;
60582;SDS011;46415;47.536;19.066;2023-03-09T06:52:11;3.97;;;3.12;;
60582;SDS011;46415;47.536;19.066;2023-03-09T06:55:14;6.40;;;3.47;;
60582;SDS011;46415;47.536;19.066;2023-03-09T06:58:19;6.03;;;3.45;;
60582;SDS011;46415;47.536;19.066;2023-03-09T07:01:22;5.87;;;3.12;;
60582;SDS011;46415;47.536;19.066;2023-03-09T07:04:27;4.40;;;2.95;;
60582;SDS011;46415;47.536;19.066;2023-03-09T07:07:30;4.72;;;3.72;;
60582;SDS011;46415;47.536;19.066;2023-03-09T07:10:33;4.20;;;3.20;;
60582;SDS011;46415;47.536;19.066;2023-03-09T07:13:35;5.28;;;3.22;;
60582;SDS011;46415;47.536;19.066;2023-03-09T07:16:38;4.57;;;3.17;;
60582;SDS011;46415;47.536;19.066;2023-03-09T07:19:41;6.60;;;3.42;;
60582;SDS011;46415;47.536;19.066;2023-03-09T07:22:44;5.57;;;3.58;;
60582;SDS011;46415;47.536;19.066;2023-03-09T07:25:47;4.85;;;3.37;;
60582;SDS011;46415;47.536;19.066;2023-03-09T07:28:50;4.90;;;3.28;;
60582;SDS011;46415;47.536;19.066;2023-03-09T07:31:53;5.25;;;3.40;;
60582;SDS011;46415;47.536;19.066;2023-03-09T07:34:56;3.67;;;3.17;;
60582;SDS011;46415;47.536;19.066;2023-03-09T07:37:58;5.12;;;3.03;;
60582;SDS011;46415;47.536;19.066;2023-03-09T07:41:01;4.55;;;3.20;;
60582;SDS011;46415;47.536;19.066;2023-03-09T07:44:04;4.55;;;3.72;;
60582;SDS011;46415;47.536;19.066;2023-03-09T07:47:07;4.37;;;2.80;;
60582;SDS011;46415;47.536;19.066;2023-03-09T07:50:10;2.53;;;2.22;;
60582;SDS011;46415;47.536;19.066;2023-03-09T07:53:13;2.37;;;1.80;;
60582;SDS011;46415;47.536;19.066;2023-03-09T07:56:16;3.92;;;3.12;;
60582;SDS011;46415;47.536;19.066;2023-03-09T07:59:19;4.97;;;2.53;;
60582;SDS011;46415;47.536;19.066;2023-03-09T08:02:22;2.92;;;2.22;;
60582;SDS011;46415;47.536;19.066;2023-03-09T08:05:25;2.85;;;2.42;;
60582;SDS011;46415;47.536;19.066;2023-03-09T08:08:28;2.78;;;2.22;;
60582;SDS011;46415;47.536;19.066;2023-03-09T08:11:33;2.90;;;2.28;;
60582;SDS011;46415;47.536;19.066;2023-03-09T08:14:36;8.43;;;2.83;;
60582;SDS011;46415;47.536;19.066;2023-03-09T08:17:39;2.15;;;1.95;;
60582;SDS011;46415;47.536;19.066;2023-03-09T08:20:42;4.75;;;2.05;;
60582;SDS011;46415;47.536;19.066;2023-03-09T08:23:46;2.50;;;1.98;;
60582;SDS011;46415;47.536;19.066;2023-03-09T08:26:48;3.12;;;1.80;;
60582;SDS011;46415;47.536;19.066;2023-03-09T08:29:51;2.40;;;2.20;;
60582;SDS011;46415;47.536;19.066;2023-03-09T08:32:54;2.40;;;2.05;;
60582;SDS011;46415;47.536;19.066;2023-03-09T08:35:58;3.67;;;2.20;;
60582;SDS011;46415;47.536;19.066;2023-03-09T08:39:01;4.07;;;2.40;;
60582;SDS011;46415;47.536;19.066;2023-03-09T08:42:04;2.17;;;1.98;;
60582;SDS011;46415;47.536;19.066;2023-03-09T08:45:07;4.00;;;1.95;;
60582;SDS011;46415;47.536;19.066;2023-03-09T08:48:11;3.30;;;2.08;;
60582;SDS011;46415;47.536;19.066;2023-03-09T08:51:13;3.85;;;2.05;;
60582;SDS011;46415;47.536;19.066;2023-03-09T08:54:16;2.50;;;2.20;;
60582;SDS011;46415;47.536;19.066;2023-03-09T08:57:19;2.60;;;2.25;;
60582;SDS011;46415;47.536;19.066;2023-03-09T09:00:22;14.40;;;4.20;;
60582;SDS011;46415;47.536;19.066;2023-03-09T09:03:26;10.00;;;3.37;;
60582;SDS011;46415;47.536;19.066;2023-03-09T09:06:31;2.95;;;2.47;;
60582;SDS011;46415;47.536;19.066;2023-03-09T09:09:33;3.55;;;2.35;;
60582;SDS011;46415;47.536;19.066;2023-03-09T09:12:36;2.87;;;2.45;;
60582;SDS011;46415;47.536;19.066;2023-03-09T09:15:39;4.35;;;2.70;;
60582;SDS011;46415;47.536;19.066;2023-03-09T09:18:44;2.67;;;2.47;;
60582;SDS011;46415;47.536;19.066;2023-03-09T09:21:46;3.05;;;2.75;;
60582;SDS011;46415;47.536;19.066;2023-03-09T09:24:50;3.87;;;2.70;;
60582;SDS011;46415;47.536;19.066;2023-03-09T09:27:53;4.32;;;2.70;;
60582;SDS011;46415;47.536;19.066;2023-03-09T09:30:57;6.57;;;2.60;;
60582;SDS011;46415;47.536;19.066;2023-03-09T09:34:06;5.25;;;2.55;;
60582;SDS011;46415;47.536;19.066;2023-03-09T09:37:09;3.05;;;2.42;;
60582;SDS011;46415;47.536;19.066;2023-03-09T09:40:14;4.10;;;2.37;;
60582;SDS011;46415;47.536;19.066;2023-03-09T09:43:17;3.62;;;2.30;;
60582;SDS011;46415;47.536;19.066;2023-03-09T09:46:20;2.40;;;2.20;;
60582;SDS011;46415;47.536;19.066;2023-03-09T09:49:26;2.83;;;2.40;;
60582;SDS011;46415;47.536;19.066;2023-03-09T09:56:02;2.95;;;2.10;;
60582;SDS011;46415;47.536;19.066;2023-03-09T09:59:06;2.58;;;2.15;;
60582;SDS011;46415;47.536;19.066;2023-03-09T10:12:26;2.55;;;2.35;;
60582;SDS011;46415;47.536;19.066;2023-03-09T10:15:30;3.37;;;2.37;;
60582;SDS011;46415;47.536;19.066;2023-03-09T10:18:38;3.22;;;2.10;;
60582;SDS011;46415;47.536;19.066;2023-03-09T10:21:47;3.30;;;2.33;;
60582;SDS011;46415;47.536;19.066;2023-03-09T10:24:57;1.95;;;1.77;;
60582;SDS011;46415;47.536;19.066;2023-03-09T10:28:35;4.22;;;1.85;;
60582;SDS011;46415;47.536;19.066;2023-03-09T10:31:44;2.65;;;1.50;;
60582;SDS011;46415;47.536;19.066;2023-03-09T10:34:56;1.55;;;1.45;;
60582;SDS011;46415;47.536;19.066;2023-03-09T10:38:13;1.50;;;1.40;;
60582;SDS011;46415;47.536;19.066;2023-03-09T10:41:19;2.08;;;1.62;;
60582;SDS011;46415;47.536;19.066;2023-03-09T10:44:22;1.40;;;1.30;;
60582;SDS011;46415;47.536;19.066;2023-03-09T10:47:25;1.40;;;1.30;;
60582;SDS011;46415;47.536;19.066;2023-03-09T10:50:32;1.50;;;1.40;;
60582;SDS011;46415;47.536;19.066;2023-03-09T10:53:42;1.75;;;1.42;;
60582;SDS011;46415;47.536;19.066;2023-03-09T10:56:46;1.70;;;1.55;;
60582;SDS011;46415;47.536;19.066;2023-03-09T10:59:57;1.55;;;1.42;;
60582;SDS011;46415;47.536;19.066;2023-03-09T11:03:21;1.83;;;1.40;;
60582;SDS011;46415;47.536;19.066;2023-03-09T11:06:30;1.75;;;1.50;;
60582;SDS011;46415;47.536;19.066;2023-03-09T11:12:46;2.80;;;1.85;;
60582;SDS011;46415;47.536;19.066;2023-03-09T11:16:03;2.00;;;1.37;;
60582;SDS011;46415;47.536;19.066;2023-03-09T11:19:11;1.50;;;1.40;;
60582;SDS011;46415;47.536;19.066;2023-03-09T11:22:16;2.37;;;2.17;;
60582;SDS011;46415;47.536;19.066;2023-03-09T11:32:27;2.70;;;2.00;;
60582;SDS011;46415;47.536;19.066;2023-03-09T11:35:30;2.25;;;2.05;;
60582;SDS011;46415;47.536;19.066;2023-03-09T11:38:33;2.05;;;1.95;;
60582;SDS011;46415;47.536;19.066;2023-03-09T11:41:39;2.80;;;2.60;;
60582;SDS011;46415;47.536;19.066;2023-03-09T11:47:49;2.33;;;2.08;;
60582;SDS011;46415;47.536;19.066;2023-03-09T11:51:14;2.35;;;2.17;;
60582;SDS011;46415;47.536;19.066;2023-03-09T11:57:43;2.17;;;1.87;;
60582;SDS011;46415;47.536;19.066;2023-03-09T12:00:51;2.30;;;2.10;;
60582;SDS011;46415;47.536;19.066;2023-03-09T12:03:59;2.78;;;1.98;;
60582;SDS011;46415;47.536;19.066;2023-03-09T12:10:31;2.50;;;1.92;;
60582;SDS011;46415;47.536;19.066;2023-03-09T12:13:57;2.25;;;1.77;;
60582;SDS011;46415;47.536;19.066;2023-03-09T12:17:05;1.75;;;1.62;;
60582;SDS011;46415;47.536;19.066;2023-03-09T12:20:20;2.00;;;1.80;;
60582;SDS011;46415;47.536;19.066;2023-03-09T12:26:37;2.10;;;1.87;;
60582;SDS011;46415;47.536;19.066;2023-03-09T12:29:42;1.50;;;1.40;;
60582;SDS011;46415;47.536;19.066;2023-03-09T12:32:49;1.87;;;1.55;;
60582;SDS011;46415;47.536;19.066;2023-03-09T12:42:37;2.83;;;1.50;;
60582;SDS011;46415;47.536;19.066;2023-03-09T12:45:45;1.70;;;1.60;;
60582;SDS011;46415;47.536;19.066;2023-03-09T12:48:49;2.33;;;1.50;;
60582;SDS011;46415;47.536;19.066;2023-03-09T12:51:58;0.95;;;0.95;;
60582;SDS011;46415;47.536;19.066;2023-03-09T12:58:43;1.23;;;0.90;;
60582;SDS011;46415;47.536;19.066;2023-03-09T13:01:51;2.83;;;1.05;;
60582;SDS011;46415;47.536;19.066;2023-03-09T13:05:11;1.15;;;0.80;;
60582;SDS011;46415;47.536;19.066;2023-03-09T13:17:37;2.50;;;0.73;;
60582;SDS011;46415;47.536;19.066;2023-03-09T13:20:41;0.93;;;0.70;;
60582;SDS011;46415;47.536;19.066;2023-03-09T13:23:45;1.52;;;1.08;;
60582;SDS011;46415;47.536;19.066;2023-03-09T13:26:49;2.15;;;0.80;;
60582;SDS011;46415;47.536;19.066;2023-03-09T13:29:56;1.83;;;0.82;;
60582;SDS011;46415;47.536;19.066;2023-03-09T13:33:05;0.90;;;0.70;;
60582;SDS011;46415;47.536;19.066;2023-03-09T13:36:16;1.15;;;1.15;;
60582;SDS011;46415;47.536;19.066;2023-03-09T13:39:23;1.15;;;1.05;;
60582;SDS011;46415;47.536;19.066;2023-03-09T13:42:27;0.95;;;0.80;;
60582;SDS011;46415;47.536;19.066;2023-03-09T13:45:33;0.90;;;0.90;;
60582;SDS011;46415;47.536;19.066;2023-03-09T13:48:40;1.12;;;1.00;;
60582;SDS011;46415;47.536;19.066;2023-03-09T13:51:48;0.73;;;0.68;;
60582;SDS011;46415;47.536;19.066;2023-03-09T13:54:57;1.05;;;0.60;;
60582;SDS011;46415;47.536;19.066;2023-03-09T13:58:18;1.45;;;0.73;;
60582;SDS011;46415;47.536;19.066;2023-03-09T14:01:25;1.25;;;0.55;;
60582;SDS011;46415;47.536;19.066;2023-03-09T14:04:30;1.70;;;0.80;;
60582;SDS011;46415;47.536;19.066;2023-03-09T14:07:42;1.10;;;0.70;;
60582;SDS011;46415;47.536;19.066;2023-03-09T14:10:47;1.30;;;0.73;;
60582;SDS011;46415;47.536;19.066;2023-03-09T14:13:53;1.55;;;0.80;;
60582;SDS011;46415;47.536;19.066;2023-03-09T14:17:02;2.47;;;0.70;;
60582;SDS011;46415;47.536;19.066;2023-03-09T14:20:05;1.35;;;0.70;;
60582;SDS011;46415;47.536;19.066;2023-03-09T14:23:15;0.75;;;0.60;;
60582;SDS011;46415;47.536;19.066;2023-03-09T14:26:26;1.40;;;0.90;;
60582;SDS011;46415;47.536;19.066;2023-03-09T14:29:33;0.80;;;0.55;;
60582;SDS011;46415;47.536;19.066;2023-03-09T14:32:36;1.90;;;0.62;;
60582;SDS011;46415;47.536;19.066;2023-03-09T14:36:06;1.87;;;0.88;;
60582;SDS011;46415;47.536;19.066;2023-03-09T14:39:41;0.77;;;0.60;;
60582;SDS011;46415;47.536;19.066;2023-03-09T14:42:46;0.75;;;0.50;;
60582;SDS011;46415;47.536;19.066;2023-03-09T14:45:48;2.78;;;0.90;;
60582;SDS011;46415;47.536;19.066;2023-03-09T14:48:55;1.12;;;0.90;;
60582;SDS011;46415;47.536;19.066;2023-03-09T14:52:03;1.65;;;0.62;;
60582;SDS011;46415;47.536;19.066;2023-03-09T14:55:11;1.08;;;0.82;;
60582;SDS011;46415;47.536;19.066;2023-03-09T14:58:18;1.12;;;0.98;;
60582;SDS011;46415;47.536;19.066;2023-03-09T15:01:24;0.62;;;0.62;;
60582;SDS011;46415;47.536;19.066;2023-03-09T15:04:29;0.95;;;0.80;;
60582;SDS011;46415;47.536;19.066;2023-03-09T15:07:32;1.83;;;0.90;;
60582;SDS011;46415;47.536;19.066;2023-03-09T15:10:35;1.25;;;0.70;;
60582;SDS011;46415;47.536;19.066;2023-03-09T15:13:38;1.50;;;1.00;;
60582;SDS011;46415;47.536;19.066;2023-03-09T15:16:41;0.95;;;0.60;;
60582;SDS011;46415;47.536;19.066;2023-03-09T15:19:44;0.85;;;0.70;;
60582;SDS011;46415;47.536;19.066;2023-03-09T15:22:47;2.33;;;0.70;;
60582;SDS011;46415;47.536;19.066;2023-03-09T15:25:50;1.25;;;0.60;;
60582;SDS011;46415;47.536;19.066;2023-03-09T15:28:53;0.70;;;0.70;;
60582;SDS011;46415;47.536;19.066;2023-03-09T15:31:56;1.12;;;0.60;;
60582;SDS011;46415;47.536;19.066;2023-03-09T15:35:01;1.27;;;0.80;;
60582;SDS011;46415;47.536;19.066;2023-03-09T15:38:04;0.95;;;0.77;;
60582;SDS011;46415;47.536;19.066;2023-03-09T15:41:10;0.90;;;0.90;;
60582;SDS011;46415;47.536;19.066;2023-03-09T15:44:12;0.62;;;0.50;;
60582;SDS011;46415;47.536;19.066;2023-03-09T15:47:17;1.27;;;0.65;;
60582;SDS011;46415;47.536;19.066;2023-03-09T15:50:21;1.23;;;0.60;;
60582;SDS011;46415;47.536;19.066;2023-03-09T15:53:24;1.30;;;1.00;;
60582;SDS011;46415;47.536;19.066;2023-03-09T15:56:27;1.15;;;0.85;;
60582;SDS011;46415;47.536;19.066;2023-03-09T15:59:30;1.87;;;0.70;;
60582;SDS011;46415;47.536;19.066;2023-03-09T16:02:33;2.25;;;0.90;;
60582;SDS011;46415;47.536;19.066;2023-03-09T16:05:36;1.87;;;1.00;;
60582;SDS011;46415;47.536;19.066;2023-03-09T16:08:38;2.58;;;1.10;;
60582;SDS011;46415;47.536;19.066;2023-03-09T16:11:41;1.35;;;0.95;;
60582;SDS011;46415;47.536;19.066;2023-03-09T16:14:44;1.67;;;0.95;;
60582;SDS011;46415;47.536;19.066;2023-03-09T16:17:47;1.35;;;0.90;;
60582;SDS011;46415;47.536;19.066;2023-03-09T16:20:50;1.62;;;1.00;;
60582;SDS011;46415;47.536;19.066;2023-03-09T16:23:53;1.52;;;0.90;;
60582;SDS011;46415;47.536;19.066;2023-03-09T16:26:55;0.88;;;0.82;;
60582;SDS011;46415;47.536;19.066;2023-03-09T16:29:58;1.77;;;1.00;;
60582;SDS011;46415;47.536;19.066;2023-03-09T16:33:01;1.67;;;1.02;;
60582;SDS011;46415;47.536;19.066;2023-03-09T16:36:05;2.12;;;0.82;;
60582;SDS011;46415;47.536;19.066;2023-03-09T16:39:08;0.98;;;0.77;;
60582;SDS011;46415;47.536;19.066;2023-03-09T16:42:11;2.30;;;0.80;;
60582;SDS011;46415;47.536;19.066;2023-03-09T16:45:14;1.40;;;0.80;;
60582;SDS011;46415;47.536;19.066;2023-03-09T16:48:23;2.58;;;0.82;;
60582;SDS011;46415;47.536;19.066;2023-03-09T16:51:29;1.30;;;0.77;;
60582;SDS011;46415;47.536;19.066;2023-03-09T16:54:32;2.60;;;1.30;;
60582;SDS011;46415;47.536;19.066;2023-03-09T16:57:35;1.60;;;1.08;;
60582;SDS011;46415;47.536;19.066;2023-03-09T17:00:39;2.10;;;0.90;;
60582;SDS011;46415;47.536;19.066;2023-03-09T17:03:42;1.12;;;0.88;;
60582;SDS011;46415;47.536;19.066;2023-03-09T17:06:46;0.88;;;0.55;;
60582;SDS011;46415;47.536;19.066;2023-03-09T17:09:48;1.87;;;1.12;;
60582;SDS011;46415;47.536;19.066;2023-03-09T17:12:51;1.15;;;0.93;;
60582;SDS011;46415;47.536;19.066;2023-03-09T17:15:58;1.70;;;0.80;;
60582;SDS011;46415;47.536;19.066;2023-03-09T17:19:02;0.80;;;0.80;;
60582;SDS011;46415;47.536;19.066;2023-03-09T17:22:05;0.52;;;0.52;;
60582;SDS011;46415;47.536;19.066;2023-03-09T17:25:09;2.05;;;1.02;;
60582;SDS011;46415;47.536;19.066;2023-03-09T17:28:18;1.27;;;0.73;;
60582;SDS011;46415;47.536;19.066;2023-03-09T17:31:20;1.10;;;0.70;;
60582;SDS011;46415;47.536;19.066;2023-03-09T17:34:23;1.52;;;0.90;;
60582;SDS011;46415;47.536;19.066;2023-03-09T17:37:26;1.10;;;0.90;;
60582;SDS011;46415;47.536;19.066;2023-03-09T17:40:29;1.15;;;0.90;;
60582;SDS011;46415;47.536;19.066;2023-03-09T17:43:32;0.65;;;0.65;;
60582;SDS011;46415;47.536;19.066;2023-03-09T17:46:36;3.33;;;1.15;;
60582;SDS011;46415;47.536;19.066;2023-03-09T17:49:39;1.45;;;1.12;;
60582;SDS011;46415;47.536;19.066;2023-03-09T17:52:42;1.42;;;1.05;;
60582;SDS011;46415;47.536;19.066;2023-03-09T17:55:45;1.45;;;1.08;;
60582;SDS011;46415;47.536;19.066;2023-03-09T17:58:47;2.08;;;1.00;;
60582;SDS011;46415;47.536;19.066;2023-03-09T18:01:52;2.20;;;1.23;;
60582;SDS011;46415;47.536;19.066;2023-03-09T18:04:55;1.52;;;1.20;;
60582;SDS011;46415;47.536;19.066;2023-03-09T18:07:58;1.75;;;1.02;;
60582;SDS011;46415;47.536;19.066;2023-03-09T18:11:01;1.67;;;1.20;;
60582;SDS011;46415;47.536;19.066;2023-03-09T18:14:05;1.77;;;0.80;;
60582;SDS011;46415;47.536;19.066;2023-03-09T18:17:09;3.22;;;1.10;;
60582;SDS011;46415;47.536;19.066;2023-03-09T18:20:11;1.30;;;1.00;;
60582;SDS011;46415;47.536;19.066;2023-03-09T18:23:14;0.98;;;0.90;;
60582;SDS011;46415;47.536;19.066;2023-03-09T18:29:20;1.60;;;1.50;;
60582;SDS011;46415;47.536;19.066;2023-03-09T18:32:24;1.98;;;1.00;;
60582;SDS011;46415;47.536;19.066;2023-03-09T18:35:27;1.55;;;1.20;;
60582;SDS011;46415;47.536;19.066;2023-03-09T18:38:30;1.35;;;1.10;;
60582;SDS011;46415;47.536;19.066;2023-03-09T18:41:33;1.50;;;1.40;;
60582;SDS011;46415;47.536;19.066;2023-03-09T18:44:36;3.20;;;1.65;;
60582;SDS011;46415;47.536;19.066;2023-03-09T18:47:39;2.67;;;1.60;;
60582;SDS011;46415;47.536;19.066;2023-03-09T18:50:42;3.83;;;1.73;;
60582;SDS011;46415;47.536;19.066;2023-03-09T18:53:45;2.28;;;1.55;;
60582;SDS011;46415;47.536;19.066;2023-03-09T18:56:48;3.90;;;2.28;;
60582;SDS011;46415;47.536;19.066;2023-03-09T18:59:51;2.47;;;2.00;;
60582;SDS011;46415;47.536;19.066;2023-03-09T19:02:54;3.00;;;1.77;;
60582;SDS011;46415;47.536;19.066;2023-03-09T19:06:02;3.05;;;2.30;;
60582;SDS011;46415;47.536;19.066;2023-03-09T19:09:07;3.20;;;2.25;;
60582;SDS011;46415;47.536;19.066;2023-03-09T19:12:11;2.60;;;2.08;;
60582;SDS011;46415;47.536;19.066;2023-03-09T19:15:14;2.87;;;2.00;;
60582;SDS011;46415;47.536;19.066;2023-03-09T19:18:17;3.20;;;2.55;;
60582;SDS011;46415;47.536;19.066;2023-03-09T19:21:21;2.85;;;1.55;;
60582;SDS011;46415;47.536;19.066;2023-03-09T19:24:24;4.22;;;1.73;;
60582;SDS011;46415;47.536;19.066;2023-03-09T19:27:27;2.33;;;1.55;;
60582;SDS011;46415;47.536;19.066;2023-03-09T19:30:30;2.70;;;2.12;;
60582;SDS011;46415;47.536;19.066;2023-03-09T19:33:33;4.80;;;2.30;;
60582;SDS011;46415;47.536;19.066;2023-03-09T19:36:36;2.97;;;2.08;;
60582;SDS011;46415;47.536;19.066;2023-03-09T19:39:39;2.55;;;1.95;;
60582;SDS011;46415;47.536;19.066;2023-03-09T19:42:43;3.03;;;2.22;;
60582;SDS011;46415;47.536;19.066;2023-03-09T19:45:46;1.48;;;1.35;;
60582;SDS011;46415;47.536;19.066;2023-03-09T19:48:49;2.37;;;1.73;;
60582;SDS011;46415;47.536;19.066;2023-03-09T19:51:52;3.33;;;1.60;;
60582;SDS011;46415;47.536;19.066;2023-03-09T19:54:55;2.35;;;1.83;;
60582;SDS011;46415;47.536;19.066;2023-03-09T19:57:58;1.55;;;1.45;;
60582;SDS011;46415;47.536;19.066;2023-03-09T20:01:02;2.67;;;1.65;;
60582;SDS011;46415;47.536;19.066;2023-03-09T20:04:12;3.15;;;1.55;;
60582;SDS011;46415;47.536;19.066;2023-03-09T20:07:17;1.98;;;1.50;;
60582;SDS011;46415;47.536;19.066;2023-03-09T20:10:20;2.45;;;1.20;;
60582;SDS011;46415;47.536;19.066;2023-03-09T20:13:22;3.30;;;1.90;;
60582;SDS011;46415;47.536;19.066;2023-03-09T20:16:27;5.18;;;1.98;;
60582;SDS011;46415;47.536;19.066;2023-03-09T20:19:31;2.47;;;1.87;;
60582;SDS011;46415;47.536;19.066;2023-03-09T20:22:34;2.95;;;1.80;;
60582;SDS011;46415;47.536;19.066;2023-03-09T20:25:37;1.73;;;1.60;;
60582;SDS011;46415;47.536;19.066;2023-03-09T20:28:41;1.98;;;1.67;;
60582;SDS011;46415;47.536;19.066;2023-03-09T20:31:48;4.82;;;2.28;;
60582;SDS011;46415;47.536;19.066;2023-03-09T20:34:53;2.28;;;1.87;;
60582;SDS011;46415;47.536;19.066;2023-03-09T20:37:56;2.33;;;1.92;;
60582;SDS011;46415;47.536;19.066;2023-03-09T20:40:59;2.22;;;1.98;;
60582;SDS011;46415;47.536;19.066;2023-03-09T20:44:03;2.92;;;2.33;;
60582;SDS011;46415;47.536;19.066;2023-03-09T20:47:07;4.93;;;2.45;;
60582;SDS011;46415;47.536;19.066;2023-03-09T20:50:11;3.25;;;1.92;;
60582;SDS011;46415;47.536;19.066;2023-03-09T20:53:15;5.65;;;2.72;;
60582;SDS011;46415;47.536;19.066;2023-03-09T20:56:19;2.17;;;1.87;;
60582;SDS011;46415;47.536;19.066;2023-03-09T20:59:24;3.03;;;2.40;;
60582;SDS011;46415;47.536;19.066;2023-03-09T21:02:26;3.80;;;2.58;;
60582;SDS011;46415;47.536;19.066;2023-03-09T21:05:30;5.20;;;3.10;;
60582;SDS011;46415;47.536;19.066;2023-03-09T21:08:33;3.78;;;2.80;;
60582;SDS011;46415;47.536;19.066;2023-03-09T21:11:36;4.12;;;3.00;;
60582;SDS011;46415;47.536;19.066;2023-03-09T21:14:39;4.05;;;3.08;;
60582;SDS011;46415;47.536;19.066;2023-03-09T21:17:42;4.20;;;3.05;;
60582;SDS011;46415;47.536;19.066;2023-03-09T21:20:45;5.22;;;3.35;;
60582;SDS011;46415;47.536;19.066;2023-03-09T21:23:56;5.57;;;3.58;;
60582;SDS011;46415;47.536;19.066;2023-03-09T21:26:59;5.03;;;3.42;;
60582;SDS011;46415;47.536;19.066;2023-03-09T21:30:03;4.12;;;3.15;;
60582;SDS011;46415;47.536;19.066;2023-03-09T21:33:08;3.95;;;2.78;;
60582;SDS011;46415;47.536;19.066;2023-03-09T21:36:11;4.03;;;2.80;;
60582;SDS011;46415;47.536;19.066;2023-03-09T21:39:14;4.45;;;2.78;;
60582;SDS011;46415;47.536;19.066;2023-03-09T21:42:17;3.25;;;2.30;;
60582;SDS011;46415;47.536;19.066;2023-03-09T21:45:20;3.65;;;1.80;;
60582;SDS011;46415;47.536;19.066;2023-03-09T21:48:23;4.82;;;2.25;;
60582;SDS011;46415;47.536;19.066;2023-03-09T21:51:44;2.33;;;2.10;;
60582;SDS011;46415;47.536;19.066;2023-03-09T21:54:47;4.55;;;2.80;;
60582;SDS011;46415;47.536;19.066;2023-03-09T21:57:50;5.40;;;2.53;;
60582;SDS011;46415;47.536;19.066;2023-03-09T22:00:58;3.85;;;2.60;;
60582;SDS011;46415;47.536;19.066;2023-03-09T22:04:02;4.97;;;3.05;;
60582;SDS011;46415;47.536;19.066;2023-03-09T22:07:05;3.20;;;2.35;;
60582;SDS011;46415;47.536;19.066;2023-03-09T22:10:11;3.85;;;2.42;;
60582;SDS011;46415;47.536;19.066;2023-03-09T22:13:14;6.03;;;2.92;;
60582;SDS011;46415;47.536;19.066;2023-03-09T22:16:21;6.30;;;2.90;;
60582;SDS011;46415;47.536;19.066;2023-03-09T22:19:25;6.70;;;3.55;;
60582;SDS011;46415;47.536;19.066;2023-03-09T22:22:29;5.93;;;3.65;;
60582;SDS011;46415;47.536;19.066;2023-03-09T22:25:32;5.03;;;3.37;;
60582;SDS011;46415;47.536;19.066;2023-03-09T22:28:35;6.05;;;3.80;;
60582;SDS011;46415;47.536;19.066;2023-03-09T22:31:38;6.95;;;3.95;;
60582;SDS011;46415;47.536;19.066;2023-03-09T22:34:40;6.75;;;4.35;;
60582;SDS011;46415;47.536;19.066;2023-03-09T22:37:43;7.57;;;5.05;;
60582;SDS011;46415;47.536;19.066;2023-03-09T22:40:46;7.78;;;4.65;;
60582;SDS011;46415;47.536;19.066;2023-03-09T22:43:49;10.25;;;4.87;;
60582;SDS011;46415;47.536;19.066;2023-03-09T22:46:52;7.15;;;4.75;;
60582;SDS011;46415;47.536;19.066;2023-03-09T22:49:58;7.95;;;4.65;;
60582;SDS011;46415;47.536;19.066;2023-03-09T22:53:00;7.45;;;5.10;;
60582;SDS011;46415;47.536;19.066;2023-03-09T22:56:04;10.73;;;4.85;;
60582;SDS011;46415;47.536;19.066;2023-03-09T22:59:08;13.68;;;4.68;;
60582;SDS011;46415;47.536;19.066;2023-03-09T23:02:11;7.87;;;3.87;;
60582;SDS011;46415;47.536;19.066;2023-03-09T23:05:14;10.43;;;4.78;;
60582;SDS011;46415;47.536;19.066;2023-03-09T23:08:16;6.95;;;4.53;;
60582;SDS011;46415;47.536;19.066;2023-03-09T23:11:26;6.68;;;4.22;;
60582;SDS011;46415;47.536;19.066;2023-03-09T23:14:33;7.40;;;4.12;;
60582;SDS011;46415;47.536;19.066;2023-03-09T23:17:36;12.10;;;4.97;;
60582;SDS011;46415;47.536;19.066;2023-03-09T23:20:39;8.73;;;4.60;;
60582;SDS011;46415;47.536;19.066;2023-03-09T23:23:42;6.00;;;3.95;;
60582;SDS011;46415;47.536;19.066;2023-03-09T23:26:44;9.43;;;4.50;;
60582;SDS011;46415;47.536;19.066;2023-03-09T23:29:47;6.25;;;4.20;;
60582;SDS011;46415;47.536;19.066;2023-03-09T23:32:50;6.07;;;3.75;;
60582;SDS011;46415;47.536;19.066;2023-03-09T23:35:53;6.53;;;3.87;;
60582;SDS011;46415;47.536;19.066;2023-03-09T23:38:56;8.52;;;3.90;;
60582;SDS011;46415;47.536;19.066;2023-03-09T23:41:59;8.75;;;4.50;;
60582;SDS011;46415;47.536;19.066;2023-03-09T23:45:01;6.65;;;3.90;;
60582;SDS011;46415;47.536;19.066;2023-03-09T23:48:04;4.95;;;3.72;;
60582;SDS011;46415;47.536;19.066;2023-03-09T23:51:08;8.38;;;4.47;;
60582;SDS011;46415;47.536;19.066;2023-03-09T23:54:13;8.57;;;4.57;;
60582;SDS011;46415;47.536;19.066;2023-03-09T23:57:16;5.43;;;3.60;;
